Time;durP1;ratioP1;P1;durP2;ratioP2;P2;SDS_P1;SDS_P2;PMS_P1;PMS_P2;Temp;Humidity;BMP_temperature;BMP_pressure;BME280_temperature;BME280_humidity;BME280_pressure;Samples;Min_cycle;Max_cycle;Signal;HPM_P1;HPM_P2
2022/05/17 00:01:14;;;;;;;3.80;2.08;;;;;;;;;;5016098;28;20018;-77
2022/05/17 00:03:45;;;;;;;1.90;1.55;;;;;;;;;;5015904;28;20037;-77
2022/05/17 00:06:10;;;;;;;2.95;1.60;;;;;;;;;;5016003;28;20355;-77
2022/05/17 00:08:39;;;;;;;3.53;1.70;;;;;;;;;;5015636;28;20098;-77
2022/05/17 00:11:15;;;;;;;1.67;1.42;;;;;;;;;;5017673;28;20029;-77
2022/05/17 00:13:41;;;;;;;2.30;1.65;;;;;;;;;;5035662;28;20105;-77
2022/05/17 00:16:10;;;;;;;2.47;1.50;;;;;;;;;;5035464;28;20059;-77
2022/05/17 00:18:36;;;;;;;4.03;1.40;;;;;;;;;;5035526;28;20038;-77
2022/05/17 00:21:02;;;;;;;2.50;1.60;;;;;;;;;;5017466;28;20025;-77
2022/05/17 00:23:28;;;;;;;1.98;1.35;;;;;;;;;;5035148;28;20032;-77
2022/05/17 00:25:54;;;;;;;2.13;1.40;;;;;;;;;;5016241;28;20021;-77
2022/05/17 00:28:19;;;;;;;1.52;1.42;;;;;;;;;;5035330;28;20037;-77
2022/05/17 00:30:55;;;;;;;1.83;1.50;;;;;;;;;;5035142;28;20021;-77
2022/05/17 00:33:23;;;;;;;1.60;1.40;;;;;;;;;;5035225;28;20022;-77
2022/05/17 00:35:49;;;;;;;1.80;1.70;;;;;;;;;;5035128;28;20076;-75
2022/05/17 00:38:14;;;;;;;2.83;1.50;;;;;;;;;;5035345;28;20033;-74
2022/05/17 00:40:40;;;;;;;1.50;1.40;;;;;;;;;;5035224;28;20060;-74
2022/05/17 00:43:09;;;;;;;1.73;1.40;;;;;;;;;;5035038;28;20481;-75
2022/05/17 00:45:45;;;;;;;2.08;1.50;;;;;;;;;;5034910;28;20025;-76
2022/05/17 00:48:11;;;;;;;3.03;1.83;;;;;;;;;;5034931;28;20022;-76
2022/05/17 00:50:46;;;;;;;4.53;1.80;;;;;;;;;;5035116;28;20013;-76
2022/05/17 00:53:12;;;;;;;2.20;1.35;;;;;;;;;;5034901;28;20025;-78
2022/05/17 00:55:39;;;;;;;3.60;1.37;;;;;;;;;;5034860;28;20014;-78
2022/05/17 00:58:04;;;;;;;1.80;1.50;;;;;;;;;;5034470;28;20260;-76
2022/05/17 01:00:32;;;;;;;2.13;1.50;;;;;;;;;;5034834;28;20051;-76
2022/05/17 01:02:59;;;;;;;2.70;1.48;;;;;;;;;;5034700;28;20025;-76
2022/05/17 01:05:25;;;;;;;3.03;1.70;;;;;;;;;;5034682;28;20017;-76
2022/05/17 01:07:55;;;;;;;2.42;1.50;;;;;;;;;;5034948;28;20033;-76
2022/05/17 01:10:20;;;;;;;4.65;1.77;;;;;;;;;;5034639;28;20025;-76
2022/05/17 01:14:57;;;;;;;2.85;1.52;;;;;;;;;;5034057;28;20045;-76
2022/05/17 01:15:35;;;;;;;1.25;1.15;;;;;;;;;;5034525;28;20025;-76
2022/05/17 01:18:01;;;;;;;3.88;1.70;;;;;;;;;;5034659;28;20028;-77
2022/05/17 01:20:26;;;;;;;2.97;1.70;;;;;;;;;;5034612;28;20474;-75
2022/05/17 01:22:52;;;;;;;1.60;1.50;;;;;;;;;;5034461;28;20076;-75
2022/05/17 01:25:17;;;;;;;2.47;1.50;;;;;;;;;;5034408;28;20030;-75
2022/05/17 01:27:45;;;;;;;2.33;1.60;;;;;;;;;;5034529;28;20025;-74
2022/05/17 01:30:16;;;;;;;3.08;1.40;;;;;;;;;;5034091;28;20061;-74
2022/05/17 01:32:41;;;;;;;;;;;;;;;;;;5034965;28;20037;-75
2022/05/17 01:35:06;;;;;;;3.50;1.50;;;;;;;;;;5033917;28;19951;-74
2022/05/17 01:37:32;;;;;;;2.05;1.40;;;;;;;;;;5033841;28;20272;-74
2022/05/17 01:39:57;;;;;;;3.03;1.27;;;;;;;;;;5034321;28;20480;-75
2022/05/17 01:42:23;;;;;;;1.80;1.70;;;;;;;;;;5034499;28;20381;-75
2022/05/17 01:44:48;;;;;;;3.30;1.70;;;;;;;;;;5034112;28;20431;-76
2022/05/17 01:47:14;;;;;;;1.98;1.65;;;;;;;;;;5033974;28;20029;-76
2022/05/17 01:49:39;;;;;;;2.63;1.80;;;;;;;;;;5033733;28;20033;-76
2022/05/17 01:52:05;;;;;;;5.38;2.15;;;;;;;;;;5033861;28;20025;-76
2022/05/17 01:54:30;;;;;;;2.63;1.95;;;;;;;;;;5033898;28;20484;-75
2022/05/17 01:56:57;;;;;;;1.92;1.65;;;;;;;;;;5034009;28;20041;-76
2022/05/17 01:59:22;;;;;;;1.83;1.65;;;;;;;;;;5033667;28;20021;-76
2022/05/17 02:01:50;;;;;;;3.50;1.52;;;;;;;;;;5033542;28;20115;-76
2022/05/17 02:04:15;;;;;;;1.90;1.48;;;;;;;;;;5033951;28;20030;-76
2022/05/17 02:06:42;;;;;;;2.58;1.90;;;;;;;;;;5033856;28;20083;-76
2022/05/17 02:09:07;;;;;;;2.60;1.70;;;;;;;;;;5033597;28;20025;-76
2022/05/17 02:11:33;;;;;;;2.35;1.88;;;;;;;;;;5028033;28;20049;-76
2022/05/17 02:13:58;;;;;;;1.95;1.73;;;;;;;;;;5014016;28;20120;-76
2022/05/17 02:16:23;;;;;;;2.42;1.70;;;;;;;;;;5013671;28;20048;-76
2022/05/17 02:18:50;;;;;;;1.92;1.75;;;;;;;;;;5013615;28;20046;-76
2022/05/17 02:21:16;;;;;;;5.45;1.73;;;;;;;;;;5014061;28;20390;-76
2022/05/17 02:23:41;;;;;;;3.47;1.80;;;;;;;;;;5013980;28;20022;-75
2022/05/17 02:26:07;;;;;;;2.58;1.38;;;;;;;;;;5013977;28;20041;-75
2022/05/17 02:28:32;;;;;;;3.53;2.00;;;;;;;;;;5014105;28;20022;-75
2022/05/17 02:30:58;;;;;;;3.85;1.98;;;;;;;;;;5013419;28;20296;-74
2022/05/17 02:33:25;;;;;;;1.83;1.70;;;;;;;;;;5013974;28;20025;-76
2022/05/17 02:35:50;;;;;;;4.68;1.80;;;;;;;;;;5014006;28;20022;-76
2022/05/17 02:38:16;;;;;;;3.38;2.15;;;;;;;;;;5013498;28;20018;-75
2022/05/17 02:40:41;;;;;;;2.42;2.00;;;;;;;;;;5013757;28;20029;-76
2022/05/17 02:43:10;;;;;;;3.10;1.80;;;;;;;;;;5013497;28;20018;-73
2022/05/17 02:45:36;;;;;;;1.95;1.85;;;;;;;;;;5013837;28;20036;-73
2022/05/17 02:48:01;;;;;;;2.50;1.83;;;;;;;;;;5013959;28;20104;-73
2022/05/17 02:50:27;;;;;;;2.13;1.55;;;;;;;;;;5017403;28;20030;-73
2022/05/17 02:52:53;;;;;;;3.35;1.77;;;;;;;;;;5017472;28;20029;-74
2022/05/17 02:55:18;;;;;;;2.60;1.65;;;;;;;;;;5017305;28;20038;-74
2022/05/17 02:57:43;;;;;;;2.40;1.50;;;;;;;;;;4999513;28;20030;-73
2022/05/17 03:00:12;;;;;;;1.73;1.63;;;;;;;;;;4999990;28;20073;-76
2022/05/17 03:02:37;;;;;;;2.80;1.92;;;;;;;;;;5017230;28;20026;-76
2022/05/17 03:05:03;;;;;;;1.98;1.70;;;;;;;;;;5017150;28;20164;-76
2022/05/17 03:07:29;;;;;;;6.05;2.05;;;;;;;;;;5017528;28;20060;-76
2022/05/17 03:09:54;;;;;;;2.63;1.85;;;;;;;;;;4999621;28;20038;-76
2022/05/17 03:12:20;;;;;;;2.80;2.10;;;;;;;;;;5024981;28;20046;-76
2022/05/17 03:14:45;;;;;;;1.75;1.63;;;;;;;;;;5036425;28;20272;-76
2022/05/17 03:17:11;;;;;;;2.20;1.88;;;;;;;;;;5036739;28;20028;-76
2022/05/17 03:19:43;;;;;;;1.85;1.75;;;;;;;;;;5036802;28;20036;-76
2022/05/17 03:22:10;;;;;;;1.83;1.60;;;;;;;;;;5037019;28;20045;-76
2022/05/17 03:24:38;;;;;;;1.80;1.70;;;;;;;;;;5018681;28;20096;-76
2022/05/17 03:27:04;;;;;;;2.22;1.55;;;;;;;;;;5036509;28;20037;-76
2022/05/17 03:29:31;;;;;;;1.83;1.70;;;;;;;;;;5036279;28;20104;-77
2022/05/17 03:31:56;;;;;;;2.50;1.70;;;;;;;;;;5036338;28;20021;-76
2022/05/17 03:34:26;;;;;;;3.08;1.98;;;;;;;;;;5018316;28;20021;-77
2022/05/17 03:36:51;;;;;;;3.70;2.88;;;;;;;;;;5036659;28;20029;-76
2022/05/17 03:39:17;;;;;;;4.40;3.80;;;;;;;;;;5018497;28;20024;-75
2022/05/17 03:41:43;;;;;;;5.13;4.15;;;;;;;;;;5036428;28;20307;-75
2022/05/17 03:44:08;;;;;;;4.30;3.00;;;;;;;;;;5036396;28;20061;-76
2022/05/17 03:46:34;;;;;;;4.82;3.08;;;;;;;;;;5036174;28;20265;-76
2022/05/17 03:49:01;;;;;;;2.72;2.15;;;;;;;;;;5035829;28;20385;-76
2022/05/17 03:51:27;;;;;;;2.60;1.65;;;;;;;;;;5036096;28;20025;-76
2022/05/17 03:54:00;;;;;;;3.47;2.00;;;;;;;;;;5036200;28;20100;-76
2022/05/17 03:56:26;;;;;;;2.13;1.92;;;;;;;;;;5035968;28;20061;-76
2022/05/17 03:58:51;;;;;;;2.30;2.10;;;;;;;;;;5035583;28;20017;-76
2022/05/17 04:01:16;;;;;;;1.95;1.83;;;;;;;;;;5017644;28;20272;-76
2022/05/17 04:03:43;;;;;;;3.73;2.10;;;;;;;;;;5036059;28;20100;-76
2022/05/17 04:06:08;;;;;;;3.10;2.10;;;;;;;;;;5036089;28;20284;-76
2022/05/17 04:08:36;;;;;;;2.63;1.73;;;;;;;;;;5017847;28;20036;-76
2022/05/17 04:11:04;;;;;;;4.45;1.92;;;;;;;;;;5035698;28;20030;-76
2022/05/17 04:13:31;;;;;;;2.38;1.90;;;;;;;;;;5016494;28;20046;-76
2022/05/17 04:16:01;;;;;;;3.10;1.90;;;;;;;;;;5035475;28;20374;-76
2022/05/17 04:18:27;;;;;;;4.00;1.90;;;;;;;;;;5035453;28;20057;-76
2022/05/17 04:20:56;;;;;;;2.22;1.90;;;;;;;;;;5035290;28;20114;-74
2022/05/17 04:23:22;;;;;;;3.30;1.90;;;;;;;;;;5035046;28;20029;-74
2022/05/17 04:25:48;;;;;;;3.63;2.00;;;;;;;;;;5034596;28;20032;-75
2022/05/17 04:28:13;;;;;;;2.83;1.85;;;;;;;;;;5034504;28;20292;-74
2022/05/17 04:30:39;;;;;;;2.40;1.80;;;;;;;;;;5034842;28;20030;-74
2022/05/17 04:33:05;;;;;;;2.78;1.60;;;;;;;;;;5034926;28;20065;-74
2022/05/17 04:35:33;;;;;;;2.58;1.92;;;;;;;;;;5034806;28;20051;-75
2022/05/17 04:37:58;;;;;;;3.78;2.10;;;;;;;;;;5034953;28;20033;-76
2022/05/17 04:40:23;;;;;;;2.20;2.10;;;;;;;;;;5035157;28;20017;-76
2022/05/17 04:42:50;;;;;;;2.58;2.10;;;;;;;;;;5035073;28;20272;-76
2022/05/17 04:45:16;;;;;;;2.10;1.90;;;;;;;;;;5034925;28;20461;-76
2022/05/17 04:47:42;;;;;;;4.35;1.98;;;;;;;;;;5034853;28;20544;-76
2022/05/17 04:50:12;;;;;;;4.60;2.22;;;;;;;;;;5034819;28;20017;-77
2022/05/17 04:52:37;;;;;;;2.95;1.92;;;;;;;;;;5034605;28;20079;-74
2022/05/17 04:55:03;;;;;;;2.88;2.08;;;;;;;;;;5034896;28;20110;-77
2022/05/17 04:57:29;;;;;;;2.13;1.92;;;;;;;;;;5034647;28;20164;-73
2022/05/17 04:59:54;;;;;;;2.80;2.00;;;;;;;;;;5034567;28;20076;-72
2022/05/17 05:02:19;;;;;;;4.00;2.08;;;;;;;;;;5034354;28;20792;-76
2022/05/17 05:04:50;;;;;;;3.57;2.63;;;;;;;;;;5034644;28;20101;-76
2022/05/17 05:07:16;;;;;;;3.53;2.17;;;;;;;;;;5034609;28;20621;-76
2022/05/17 05:09:42;;;;;;;3.50;2.17;;;;;;;;;;5034432;28;20026;-76
2022/05/17 05:12:08;;;;;;;4.68;1.92;;;;;;;;;;5033611;28;20041;-75
2022/05/17 05:14:33;;;;;;;3.60;2.00;;;;;;;;;;5034328;28;20043;-76
2022/05/17 05:17:00;;;;;;;3.10;2.00;;;;;;;;;;5034405;28;20342;-76
2022/05/17 05:19:25;;;;;;;3.33;2.50;;;;;;;;;;5034385;28;20275;-76
2022/05/17 05:21:52;;;;;;;6.00;2.40;;;;;;;;;;5034373;28;20071;-76
2022/05/17 05:24:19;;;;;;;8.07;3.75;;;;;;;;;;5034135;28;20311;-76
2022/05/17 05:26:44;;;;;;;6.83;4.23;;;;;;;;;;5034300;28;20025;-76
2022/05/17 05:29:09;;;;;;;3.97;2.30;;;;;;;;;;5033933;28;20283;-76
2022/05/17 05:31:34;;;;;;;4.67;2.70;;;;;;;;;;5015979;28;20029;-76
2022/05/17 05:34:03;;;;;;;4.28;2.97;;;;;;;;;;5033749;28;20406;-76
2022/05/17 05:36:28;;;;;;;4.10;2.25;;;;;;;;;;5014931;28;20028;-76
2022/05/17 05:38:54;;;;;;;5.55;3.15;;;;;;;;;;5015198;28;20456;-76
2022/05/17 05:41:19;;;;;;;1.52;1.42;;;;;;;;;;5032970;28;20096;-76
2022/05/17 05:43:44;;;;;;;3.55;1.52;;;;;;;;;;5032639;28;20029;-76
2022/05/17 05:46:10;;;;;;;2.67;1.60;;;;;;;;;;5032591;28;20163;-76
2022/05/17 05:48:36;;;;;;;1.52;1.42;;;;;;;;;;5032591;28;20124;-76
2022/05/17 05:51:01;;;;;;;2.50;1.80;;;;;;;;;;5032466;28;20028;-76
2022/05/17 05:53:26;;;;;;;6.65;2.10;;;;;;;;;;5032535;28;20474;-76
2022/05/17 05:55:57;;;;;;;2.87;1.90;;;;;;;;;;5032831;28;20013;-76
2022/05/17 05:58:26;;;;;;;2.10;1.90;;;;;;;;;;5032529;28;20748;-76
2022/05/17 06:00:51;;;;;;;4.13;2.22;;;;;;;;;;5032442;28;20024;-76
2022/05/17 06:03:17;;;;;;;4.43;2.10;;;;;;;;;;5032440;28;20021;-76
2022/05/17 06:05:42;;;;;;;2.80;1.97;;;;;;;;;;5032350;28;20385;-76
2022/05/17 06:08:11;;;;;;;2.60;2.13;;;;;;;;;;5032331;28;20775;-76
2022/05/17 06:10:37;;;;;;;3.90;1.98;;;;;;;;;;5032390;28;20052;-76
2022/05/17 06:13:02;;;;;;;2.08;1.90;;;;;;;;;;5032828;28;20073;-76
2022/05/17 06:15:27;;;;;;;3.85;1.73;;;;;;;;;;5033443;28;20022;-76
2022/05/17 06:17:53;;;;;;;3.67;2.00;;;;;;;;;;5032853;28;20466;-76
2022/05/17 06:20:24;;;;;;;3.33;1.70;;;;;;;;;;5015585;28;20034;-76
2022/05/17 06:22:49;;;;;;;3.25;1.65;;;;;;;;;;5034256;28;20041;-76
2022/05/17 06:25:16;;;;;;;1.63;1.53;;;;;;;;;;5037460;28;20028;-76
2022/05/17 06:27:41;;;;;;;2.00;1.75;;;;;;;;;;5037240;28;20267;-76
2022/05/17 06:30:07;;;;;;;2.90;1.37;;;;;;;;;;5036954;28;20025;-76
2022/05/17 06:32:33;;;;;;;2.25;1.42;;;;;;;;;;5035926;28;20371;-76
2022/05/17 06:34:59;;;;;;;2.67;1.40;;;;;;;;;;5035580;28;20469;-76
2022/05/17 06:37:24;;;;;;;3.13;1.60;;;;;;;;;;5035377;28;20025;-76
2022/05/17 06:39:49;;;;;;;2.53;1.55;;;;;;;;;;5035026;28;20071;-76
2022/05/17 06:42:15;;;;;;;2.17;1.35;;;;;;;;;;5035235;28;20029;-76
2022/05/17 06:44:40;;;;;;;3.40;1.38;;;;;;;;;;5034936;28;20021;-76
2022/05/17 06:47:06;;;;;;;4.30;1.50;;;;;;;;;;5034934;28;20051;-76
2022/05/17 06:49:32;;;;;;;3.00;1.65;;;;;;;;;;5035246;28;20024;-76
2022/05/17 06:52:01;;;;;;;3.55;1.50;;;;;;;;;;5036282;28;20461;-76
2022/05/17 06:54:26;;;;;;;7.38;1.70;;;;;;;;;;5036859;28;20025;-76
2022/05/17 06:56:51;;;;;;;4.95;1.60;;;;;;;;;;5036826;28;20026;-76
2022/05/17 06:59:18;;;;;;;1.55;1.17;;;;;;;;;;5036757;28;20056;-76
2022/05/17 07:01:49;;;;;;;2.42;1.48;;;;;;;;;;5036731;28;20029;-76
2022/05/17 07:04:15;;;;;;;4.43;1.42;;;;;;;;;;5018870;28;20043;-76
2022/05/17 07:06:40;;;;;;;2.90;1.50;;;;;;;;;;5036803;28;20104;-76
2022/05/17 07:09:05;;;;;;;2.20;1.40;;;;;;;;;;5036552;28;20033;-76
2022/05/17 07:14:15;;;;;;;2.38;1.27;;;;;;;;;;5036492;28;20336;-76
2022/05/17 07:16:40;;;;;;;2.50;1.23;;;;;;;;;;5036445;28;20045;-76
2022/05/17 07:19:07;;;;;;;2.92;1.48;;;;;;;;;;5036399;28;20084;-76
2022/05/17 07:21:33;;;;;;;3.58;1.10;;;;;;;;;;5036315;28;20029;-76
2022/05/17 07:23:59;;;;;;;1.20;1.10;;;;;;;;;;5036409;28;20025;-77
2022/05/17 07:26:24;;;;;;;2.05;1.40;;;;;;;;;;5036233;28;20033;-76
2022/05/17 07:28:49;;;;;;;5.50;1.25;;;;;;;;;;5036300;28;20029;-76
2022/05/17 07:31:14;;;;;;;1.67;1.20;;;;;;;;;;5036234;28;20025;-76
2022/05/17 07:33:40;;;;;;;2.55;1.38;;;;;;;;;;5036174;28;20032;-76
2022/05/17 07:36:07;;;;;;;4.35;1.50;;;;;;;;;;5017711;28;20029;-76
2022/05/17 07:38:33;;;;;;;2.65;1.35;;;;;;;;;;5035961;28;20039;-76
2022/05/17 07:40:59;;;;;;;2.50;1.58;;;;;;;;;;5036008;28;20017;-76
2022/05/17 07:43:24;;;;;;;4.07;1.85;;;;;;;;;;5036062;28;20018;-76
2022/05/17 07:45:50;;;;;;;4.00;1.48;;;;;;;;;;5035527;28;20534;-76
2022/05/17 07:48:21;;;;;;;2.70;1.20;;;;;;;;;;5035820;28;20053;-77
2022/05/17 07:50:47;;;;;;;2.70;1.33;;;;;;;;;;5035745;28;20095;-76
2022/05/17 07:53:13;;;;;;;1.48;1.20;;;;;;;;;;5035795;28;20022;-73
2022/05/17 07:55:39;;;;;;;1.48;1.35;;;;;;;;;;5035761;28;20029;-75
2022/05/17 07:58:05;;;;;;;1.30;1.20;;;;;;;;;;5035722;28;20462;-75
2022/05/17 08:00:31;;;;;;;1.65;1.40;;;;;;;;;;5035595;28;20029;-75
2022/05/17 08:02:58;;;;;;;3.33;1.27;;;;;;;;;;5034861;28;20039;-76
2022/05/17 08:05:23;;;;;;;1.23;1.15;;;;;;;;;;5034442;28;20029;-75
2022/05/17 08:07:49;;;;;;;5.90;2.30;;;;;;;;;;5034419;28;20164;-75
2022/05/17 08:10:15;;;;;;;3.10;1.40;;;;;;;;;;5034354;28;20034;-75
2022/05/17 08:12:40;;;;;;;1.35;1.02;;;;;;;;;;5016509;28;20056;-75
2022/05/17 08:15:06;;;;;;;1.58;1.20;;;;;;;;;;5016571;28;20032;-76
2022/05/17 08:17:31;;;;;;;1.27;1.08;;;;;;;;;;5034225;28;20382;-75
2022/05/17 08:19:57;;;;;;;19.13;3.35;;;;;;;;;;5034203;28;20462;-75
2022/05/17 08:22:22;;;;;;;1.88;1.50;;;;;;;;;;5016451;28;20080;-75
2022/05/17 08:27:31;;;;;;;3.22;1.30;;;;;;;;;;5034044;28;20037;-75
2022/05/17 08:30:01;;;;;;;4.15;1.50;;;;;;;;;;5034019;28;20022;-75
2022/05/17 08:35:10;;;;;;;5.38;1.70;;;;;;;;;;5033842;28;20114;-75
2022/05/17 08:37:35;;;;;;;9.55;1.70;;;;;;;;;;5033806;28;20053;-76
2022/05/17 08:40:01;;;;;;;1.45;1.35;;;;;;;;;;5033824;28;20049;-75
2022/05/17 08:42:33;;;;;;;40.97;5.63;;;;;;;;;;5033750;28;20031;-75
2022/05/17 08:45:02;;;;;;;2.65;1.55;;;;;;;;;;5033986;28;20064;-75
2022/05/17 08:47:34;;;;;;;3.60;1.30;;;;;;;;;;5032651;28;20497;-75
2022/05/17 08:50:08;;;;;;;22.92;3.60;;;;;;;;;;5033571;28;20038;-75
2022/05/17 08:52:36;;;;;;;2.85;1.20;;;;;;;;;;5033443;28;20037;-75
2022/05/17 08:55:10;;;;;;;1.83;1.15;;;;;;;;;;5033479;28;20025;-75
2022/05/17 08:57:39;;;;;;;5.03;1.42;;;;;;;;;;5033470;28;20059;-75
2022/05/17 09:00:08;;;;;;;7.05;1.60;;;;;;;;;;5033438;28;20646;-75
2022/05/17 09:02:39;;;;;;;4.05;1.40;;;;;;;;;;5033324;28;20401;-76
2022/05/17 09:05:21;;;;;;;22.52;2.78;;;;;;;;;;5033336;28;20057;-75
2022/05/17 09:07:50;;;;;;;3.85;1.33;;;;;;;;;;5033236;28;20048;-75
2022/05/17 09:10:34;;;;;;;1.30;1.20;;;;;;;;;;5033236;28;20367;-68
2022/05/17 09:13:04;;;;;;;2.83;1.10;;;;;;;;;;5032938;28;20041;-74
2022/05/17 09:15:29;;;;;;;6.03;1.45;;;;;;;;;;5033106;28;20037;-74
2022/05/17 09:18:05;;;;;;;12.60;2.70;;;;;;;;;;5106020;27;1374299;-72
2022/05/17 09:20:33;;;;;;;1.75;1.55;;;;;;;;;;5129275;28;20039;-72
2022/05/17 09:22:58;;;;;;;4.20;2.00;;;;;;;;;;5131178;27;20023;-72
2022/05/17 09:25:47;;;;;;;1.92;1.38;;;;;;;;;;5130688;27;20126;-72
2022/05/17 09:28:16;;;;;;;3.90;1.63;;;;;;;;;;5119666;28;20058;-72
2022/05/17 09:30:42;;;;;;;29.23;4.38;;;;;;;;;;5130736;27;20015;-72
2022/05/17 09:33:11;;;;;;;3.65;1.30;;;;;;;;;;5131572;27;20031;-72
2022/05/17 09:35:57;;;;;;;22.00;4.05;;;;;;;;;;5131573;27;20354;-72
2022/05/17 09:38:24;;;;;;;16.98;2.60;;;;;;;;;;5131517;28;20024;-72
2022/05/17 09:40:50;;;;;;;12.00;3.03;;;;;;;;;;5131707;27;20454;-72
2022/05/17 09:43:17;;;;;;;12.15;2.05;;;;;;;;;;5131435;27;20472;-72
2022/05/17 09:46:01;;;;;;;5.40;1.70;;;;;;;;;;5130937;27;20048;-72
2022/05/17 09:48:29;;;;;;;1.30;1.13;;;;;;;;;;5130392;27;20381;-72
2022/05/17 09:53:41;;;;;;;5.15;1.38;;;;;;;;;;5130230;28;20023;-72
2022/05/17 09:56:07;;;;;;;3.38;1.30;;;;;;;;;;5130206;27;20023;-72
2022/05/17 09:58:38;;;;;;;3.90;1.30;;;;;;;;;;5130420;28;20080;-72
2022/05/17 10:01:15;;;;;;;3.45;1.20;;;;;;;;;;5130244;27;20055;-72
2022/05/17 10:03:41;;;;;;;1.65;1.10;;;;;;;;;;5130067;28;20032;-72
2022/05/17 10:06:07;;;;;;;3.40;1.23;;;;;;;;;;5130121;27;20058;-72
2022/05/17 10:08:38;;;;;;;1.40;1.10;;;;;;;;;;5130016;28;20487;-72
2022/05/17 10:11:18;;;;;;;1.25;1.10;;;;;;;;;;5129991;27;20114;-72
2022/05/17 10:14:02;;;;;;;1.60;1.05;;;;;;;;;;5129895;28;20042;-79
2022/05/17 10:16:33;;;;;;;1.98;1.40;;;;;;;;;;5129560;28;20074;-80
2022/05/17 10:19:08;;;;;;;1.58;1.10;;;;;;;;;;5129760;28;20035;-74
2022/05/17 10:21:48;;;;;;;2.80;0.98;;;;;;;;;;5129773;27;20042;-75
2022/05/17 10:24:20;;;;;;;1.92;1.27;;;;;;;;;;5128623;28;20027;-78
2022/05/17 10:26:47;;;;;;;2.25;1.02;;;;;;;;;;5129734;28;20035;-79
2022/05/17 10:29:13;;;;;;;1.17;0.90;;;;;;;;;;5117024;27;20381;-80
2022/05/17 10:31:58;;;;;;;6.30;1.52;;;;;;;;;;5114580;28;20092;-76
2022/05/17 10:34:38;;;;;;;3.92;1.05;;;;;;;;;;5102057;28;20409;-67
2022/05/17 10:37:12;;;;;;;41.08;5.03;;;;;;;;;;5115737;28;20074;-78
2022/05/17 10:39:38;;;;;;;5.10;1.52;;;;;;;;;;5115680;28;20456;-83
2022/05/17 10:42:04;;;;;;;18.73;3.00;;;;;;;;;;5097359;28;20063;-83
2022/05/17 10:44:40;;;;;;;4.18;1.50;;;;;;;;;;5114054;28;20047;-82
2022/05/17 10:47:13;;;;;;;4.00;1.40;;;;;;;;;;5115590;28;20019;-75
2022/05/17 10:49:44;;;;;;;3.90;1.20;;;;;;;;;;5115483;28;20035;-75
2022/05/17 10:52:22;;;;;;;1.70;1.48;;;;;;;;;;5115495;28;20114;-75
2022/05/17 10:54:57;;;;;;;2.88;1.30;;;;;;;;;;5114265;28;20039;-75
2022/05/17 10:57:46;;;;;;;3.83;1.20;;;;;;;;;;5114117;28;20530;-74
2022/05/17 11:00:18;;;;;;;3.13;1.50;;;;;;;;;;5115374;28;20047;-74
2022/05/17 11:03:02;;;;;;;9.60;1.42;;;;;;;;;;5115345;28;20028;-74
2022/05/17 11:05:46;;;;;;;3.45;1.10;;;;;;;;;;5115186;28;20039;-74
2022/05/17 11:08:20;;;;;;;1.77;1.63;;;;;;;;;;5115186;28;20034;-78
2022/05/17 11:10:57;;;;;;;2.92;1.30;;;;;;;;;;5115119;28;20119;-76
2022/05/17 11:13:28;;;;;;;3.17;1.13;;;;;;;;;;5116097;28;20034;-76
2022/05/17 11:16:14;;;;;;;2.75;1.00;;;;;;;;;;5115929;28;20035;-76
2022/05/17 11:18:45;;;;;;;2.35;1.10;;;;;;;;;;5115529;28;20126;-76
2022/05/17 11:21:20;;;;;;;2.75;1.40;;;;;;;;;;5116410;28;20058;-76
2022/05/17 11:23:53;;;;;;;1.10;1.00;;;;;;;;;;5116264;28;20024;-76
2022/05/17 11:26:53;;;;;;;1.42;0.90;;;;;;;;;;5116233;28;20028;-76
2022/05/17 11:29:34;;;;;;;2.95;1.23;;;;;;;;;;5115963;28;20024;-76
2022/05/17 11:31:59;;;;;;;;;;;;;;;;;;5115082;28;20496;-76
2022/05/17 11:34:26;;;;;;;1.05;0.95;;;;;;;;;;5115777;28;19903;-76
2022/05/17 11:36:59;;;;;;;1.98;1.02;;;;;;;;;;5113668;28;20055;-76
2022/05/17 11:39:31;;;;;;;1.52;1.05;;;;;;;;;;5111491;28;20099;-76
2022/05/17 11:42:10;;;;;;;1.98;0.90;;;;;;;;;;5113491;28;20020;-76
2022/05/17 11:44:45;;;;;;;1.20;1.00;;;;;;;;;;5113489;28;20023;-77
2022/05/17 11:47:29;;;;;;;1.73;0.85;;;;;;;;;;5113405;28;20031;-77
2022/05/17 11:50:24;;;;;;;1.58;0.90;;;;;;;;;;5113363;28;20470;-76
2022/05/17 11:53:16;;;;;;;3.05;0.98;;;;;;;;;;5098002;28;20047;-76
2022/05/17 11:56:02;;;;;;;3.83;1.20;;;;;;;;;;5115336;28;20038;-77
2022/05/17 11:58:28;;;;;;;1.48;0.90;;;;;;;;;;5115155;28;20027;-76
2022/05/17 12:00:53;;;;;;;2.13;1.02;;;;;;;;;;5115308;28;20012;-76
2022/05/17 12:03:37;;;;;;;1.08;0.82;;;;;;;;;;5115241;28;20503;-76
2022/05/17 12:06:08;;;;;;;1.77;1.00;;;;;;;;;;5115247;28;20081;-76
2022/05/17 12:08:38;;;;;;;3.45;0.90;;;;;;;;;;5115097;28;20435;-76
2022/05/17 12:11:15;;;;;;;0.93;0.88;;;;;;;;;;5113847;28;20032;-76
2022/05/17 12:13:49;;;;;;;0.70;0.70;;;;;;;;;;5115048;28;20032;-76
2022/05/17 12:16:32;;;;;;;2.75;1.00;;;;;;;;;;5114655;28;20039;-76
2022/05/17 12:18:58;;;;;;;0.75;0.75;;;;;;;;;;5115244;28;20072;-76
2022/05/17 12:21:41;;;;;;;1.05;0.73;;;;;;;;;;5114901;28;20012;-76
2022/05/17 12:24:25;;;;;;;1.63;1.02;;;;;;;;;;5114877;28;20030;-76
2022/05/17 12:27:04;;;;;;;1.60;0.88;;;;;;;;;;5114834;28;20035;-76
2022/05/17 12:32:18;;;;;;;1.63;0.82;;;;;;;;;;5114637;28;20035;-76
2022/05/17 12:34:49;;;;;;;1.30;0.90;;;;;;;;;;5113752;28;20531;-76
2022/05/17 12:37:15;;;;;;;2.00;0.90;;;;;;;;;;5114614;28;20110;-77
2022/05/17 12:45:15;;;;;;;2.22;0.80;;;;;;;;;;5114574;28;20031;-76
2022/05/17 12:47:43;;;;;;;1.52;0.93;;;;;;;;;;5114474;28;20034;-76
2022/05/17 12:50:14;;;;;;;8.10;3.55;;;;;;;;;;5114378;28;20015;-76
2022/05/17 12:52:43;;;;;;;2.33;2.13;;;;;;;;;;5114209;28;20473;-76
2022/05/17 12:55:12;;;;;;;1.83;1.60;;;;;;;;;;5113945;27;20359;-76
2022/05/17 12:57:39;;;;;;;2.03;1.90;;;;;;;;;;5114173;28;20074;-77
2022/05/17 13:00:08;;;;;;;9.77;8.95;;;;;;;;;;5113014;28;20047;-77
2022/05/17 13:02:39;;;;;;;1.63;1.27;;;;;;;;;;5112606;28;20484;-77
2022/05/17 13:05:21;;;;;;;2.55;1.05;;;;;;;;;;5114194;28;20497;-77
2022/05/17 13:07:46;;;;;;;1.23;1.10;;;;;;;;;;5113282;28;20099;-76
2022/05/17 13:10:12;;;;;;;1.20;0.80;;;;;;;;;;5113098;28;20047;-76
2022/05/17 13:12:40;;;;;;;1.58;0.82;;;;;;;;;;5111818;28;20254;-75
2022/05/17 13:15:06;;;;;;;5.20;4.72;;;;;;;;;;5113070;28;20023;-75
2022/05/17 13:17:35;;;;;;;4.43;4.13;;;;;;;;;;5112711;28;20486;-84
2022/05/17 13:20:18;;;;;;;10.97;1.47;;;;;;;;;;5111784;28;20028;-85
2022/05/17 13:22:44;;;;;;;1.90;0.80;;;;;;;;;;5112933;28;20020;-84
2022/05/17 13:25:15;;;;;;;2.55;0.80;;;;;;;;;;5111639;28;20020;-84
2022/05/17 13:27:46;;;;;;;3.30;1.02;;;;;;;;;;5094628;28;20059;-85
2022/05/17 13:30:26;;;;;;;1.73;0.80;;;;;;;;;;5112848;28;20035;-86
2022/05/17 13:32:51;;;;;;;1.73;1.00;;;;;;;;;;5094643;28;20067;-84
2022/05/17 13:35:27;;;;;;;1.05;0.70;;;;;;;;;;5111623;28;20058;-85
2022/05/17 13:37:53;;;;;;;8.30;1.15;;;;;;;;;;5111539;28;20023;-85
2022/05/17 13:40:38;;;;;;;1.65;1.05;;;;;;;;;;5094556;28;20026;-85
2022/05/17 13:43:17;;;;;;;1.38;1.00;;;;;;;;;;5112730;28;20062;-85
2022/05/17 13:45:55;;;;;;;2.10;0.75;;;;;;;;;;5111541;28;20034;-85
2022/05/17 13:48:21;;;;;;;1.60;0.90;;;;;;;;;;5112693;28;20031;-85
2022/05/17 13:50:52;;;;;;;1.38;1.27;;;;;;;;;;5111513;28;20024;-86
2022/05/17 13:53:19;;;;;;;2.90;1.15;;;;;;;;;;5111444;28;20035;-86
2022/05/17 13:55:45;;;;;;;2.03;0.80;;;;;;;;;;5112859;28;20024;-86
2022/05/17 13:58:11;;;;;;;5.75;1.17;;;;;;;;;;5111778;28;20027;-86
2022/05/17 14:01:01;;;;;;;1.35;1.00;;;;;;;;;;5111496;28;20019;-86
2022/05/17 14:03:27;;;;;;;1.10;0.80;;;;;;;;;;5099741;28;20106;-86
2022/05/17 14:05:58;;;;;;;0.77;0.77;;;;;;;;;;5117127;28;20452;-86
2022/05/17 14:14:00;;;;;;;1.73;1.10;;;;;;;;;;5116022;28;20031;-85
2022/05/17 14:16:37;;;;;;;2.38;0.80;;;;;;;;;;5115910;28;20381;-85
2022/05/17 14:19:04;;;;;;;3.75;1.10;;;;;;;;;;5100214;28;20027;-86
2022/05/17 14:21:30;;;;;;;2.72;0.98;;;;;;;;;;5099018;28;20039;-86
2022/05/17 14:24:16;;;;;;;2.85;1.10;;;;;;;;;;5098987;28;20032;-87
2022/05/17 14:26:43;;;;;;;2.00;1.02;;;;;;;;;;5099176;28;20034;-85
2022/05/17 14:29:09;;;;;;;1.38;0.93;;;;;;;;;;5117069;28;20026;-86
2022/05/17 14:31:38;;;;;;;2.70;1.50;;;;;;;;;;5098120;28;20375;-86
2022/05/17 14:37:11;;;;;;;2.95;1.25;;;;;;;;;;5115619;28;20023;-85
2022/05/17 14:40:02;;;;;;;4.38;1.52;;;;;;;;;;5115761;28;20019;-87
2022/05/17 14:42:28;;;;;;;3.35;1.30;;;;;;;;;;5116275;28;20076;-85
2022/05/17 14:44:53;;;;;;;2.78;1.10;;;;;;;;;;5116833;28;20024;-85
2022/05/17 14:47:23;;;;;;;1.65;1.30;;;;;;;;;;5114280;28;20034;-86
2022/05/17 14:49:48;;;;;;;;;;;;;;;;;;5114807;28;20031;-86
2022/05/17 14:52:14;;;;;;;1.67;1.42;;;;;;;;;;5114274;28;19910;-85
2022/05/17 14:54:39;;;;;;;2.42;1.27;;;;;;;;;;5115466;28;20073;-86
2022/05/17 14:57:05;;;;;;;2.20;1.30;;;;;;;;;;5115322;28;20020;-85
2022/05/17 14:59:30;;;;;;;2.03;1.88;;;;;;;;;;5115411;28;20027;-86
2022/05/17 15:01:56;;;;;;;4.03;1.40;;;;;;;;;;5114158;28;20476;-85
2022/05/17 15:04:23;;;;;;;3.67;1.40;;;;;;;;;;5114121;28;20724;-85
2022/05/17 15:06:53;;;;;;;1.48;1.15;;;;;;;;;;5113978;28;20016;-86
2022/05/17 15:09:20;;;;;;;9.25;6.05;;;;;;;;;;5115235;28;20114;-85
2022/05/17 15:11:45;;;;;;;17.23;13.68;;;;;;;;;;5113883;28;20019;-85
2022/05/17 15:14:11;;;;;;;10.63;7.60;;;;;;;;;;5115052;28;20024;-86
2022/05/17 15:16:37;;;;;;;3.95;3.65;;;;;;;;;;5113770;28;20063;-85
2022/05/17 15:19:02;;;;;;;2.13;1.73;;;;;;;;;;5113700;28;20038;-85
2022/05/17 15:21:28;;;;;;;2.30;2.10;;;;;;;;;;5115014;28;20027;-86